createdAt,value
2022-11-03T00:04:17.504Z,1.50
2022-11-03T00:09:16.128Z,1.45
2022-11-03T00:14:14.718Z,1.15
2022-11-03T00:19:13.124Z,1.80
2022-11-03T00:24:10.165Z,1.30
2022-11-03T00:29:09.448Z,1.77
2022-11-03T00:34:07.199Z,1.15
2022-11-03T00:39:04.624Z,0.93
2022-11-03T00:44:01.069Z,2.45
2022-11-03T00:48:57.494Z,1.17
2022-11-03T00:53:59.651Z,2.00
2022-11-03T00:58:57.584Z,1.08
2022-11-03T01:04:15.250Z,1.52
2022-11-03T01:09:11.627Z,2.10
2022-11-03T01:14:10.217Z,1.17
2022-11-03T01:19:07.375Z,1.83
2022-11-03T01:24:05.143Z,1.20
2022-11-03T01:29:01.544Z,1.60
2022-11-03T01:33:58.672Z,0.98
2022-11-03T01:38:56.365Z,1.35
2022-11-03T01:44:30.112Z,1.10
2022-11-03T01:49:58.821Z,1.45
2022-11-03T01:55:02.237Z,1.80
2022-11-03T02:00:01.497Z,1.40
2022-11-03T02:05:02.359Z,1.33
2022-11-03T02:09:58.947Z,1.20
2022-11-03T02:15:06.311Z,1.67
2022-11-03T02:20:14.012Z,1.80
2022-11-03T02:26:07.261Z,1.20
2022-11-03T02:31:28.425Z,1.33
2022-11-03T02:36:35.857Z,0.90
2022-11-03T02:41:36.079Z,1.70
2022-11-03T02:46:34.649Z,1.20
2022-11-03T02:56:31.075Z,1.25
2022-11-03T03:01:48.747Z,2.65
2022-11-03T03:06:53.540Z,1.40
2022-11-03T03:11:53.802Z,1.70
2022-11-03T03:16:53.403Z,1.40
2022-11-03T03:21:53.021Z,1.55
2022-11-03T03:26:50.646Z,1.20
2022-11-03T03:31:54.203Z,1.70
2022-11-03T03:36:51.182Z,1.50
2022-11-03T03:41:48.551Z,1.83
2022-11-03T03:46:51.790Z,1.45
2022-11-03T03:51:49.774Z,1.60
2022-11-03T03:57:03.015Z,1.40
2022-11-03T04:01:59.611Z,1.50
2022-11-03T04:07:14.479Z,1.08
2022-11-03T04:12:29.243Z,1.13
2022-11-03T04:17:44.273Z,1.27
2022-11-03T04:22:40.659Z,1.50
2022-11-03T04:27:37.960Z,1.30
2022-11-03T04:32:34.649Z,1.92
2022-11-03T04:37:31.013Z,2.97
2022-11-03T04:42:31.490Z,1.15
2022-11-03T04:47:28.782Z,1.80
2022-11-03T04:52:25.139Z,2.33
2022-11-03T04:57:21.517Z,1.35
2022-11-03T05:02:20.876Z,2.10
2022-11-03T05:07:32.855Z,1.20
2022-11-03T05:12:30.910Z,1.90
2022-11-03T05:17:29.100Z,1.20
2022-11-03T05:22:29.184Z,2.13
2022-11-03T05:27:25.645Z,2.05
2022-11-03T05:32:25.924Z,1.67
2022-11-03T05:37:31.844Z,1.55
2022-11-03T05:42:34.115Z,2.35
2022-11-03T05:47:37.663Z,1.60
2022-11-03T05:52:34.093Z,3.47
2022-11-03T05:57:33.339Z,2.25
2022-11-03T06:02:37.574Z,2.33
2022-11-03T06:07:34.401Z,2.13
2022-11-03T06:12:30.922Z,2.50
2022-11-03T06:17:28.329Z,1.83
2022-11-03T06:22:31.005Z,2.28
2022-11-03T06:27:34.041Z,2.13
2022-11-03T06:32:30.545Z,2.78
2022-11-03T06:37:34.208Z,1.90
2022-11-03T06:42:33.252Z,2.60
2022-11-03T06:47:29.641Z,1.90
2022-11-03T06:52:30.957Z,2.92
2022-11-03T06:57:35.560Z,3.22
2022-11-03T07:02:49.211Z,2.00
2022-11-03T07:07:47.142Z,2.13
2022-11-03T07:12:43.715Z,1.77
2022-11-03T07:17:40.120Z,1.55
2022-11-03T07:22:36.581Z,1.90
2022-11-03T07:27:39.052Z,2.00
2022-11-03T07:32:35.605Z,1.90
2022-11-03T07:37:32.182Z,1.92
2022-11-03T07:42:28.707Z,1.90
2022-11-03T07:47:26.784Z,2.03
2022-11-03T07:52:25.688Z,1.80
2022-11-03T07:57:30.409Z,2.00
2022-11-03T08:02:49.584Z,2.13
2022-11-03T08:07:46.429Z,1.65
2022-11-03T08:12:42.927Z,2.40
2022-11-03T08:17:39.354Z,1.85
2022-11-03T08:22:35.747Z,1.88
2022-11-03T08:27:32.199Z,2.95
2022-11-03T08:32:28.561Z,1.83
2022-11-03T08:37:24.929Z,1.65
2022-11-03T08:42:21.300Z,1.83
2022-11-03T08:47:17.652Z,2.55
2022-11-03T08:52:14.149Z,1.98
2022-11-03T08:57:10.491Z,2.20
2022-11-03T09:02:07.067Z,1.52
2022-11-03T09:07:03.481Z,2.10
2022-11-03T09:11:59.849Z,2.42
2022-11-03T09:16:56.261Z,2.50
2022-11-03T09:21:52.936Z,1.80
2022-11-03T09:26:49.367Z,1.58
2022-11-03T09:31:45.775Z,1.67
2022-11-03T09:36:42.149Z,1.55
2022-11-03T09:41:57.922Z,1.70
2022-11-03T09:46:58.238Z,1.83
2022-11-03T09:51:55.778Z,1.40
2022-11-03T09:56:52.172Z,1.73
2022-11-03T10:01:53.287Z,1.70
2022-11-03T10:06:49.896Z,1.90
2022-11-03T10:11:47.092Z,1.83
2022-11-03T10:16:53.331Z,1.98
2022-11-03T10:21:51.281Z,1.40
2022-11-03T10:26:54.579Z,1.60
2022-11-03T10:31:53.808Z,1.80
2022-11-03T10:36:50.817Z,2.15
2022-11-03T10:41:57.498Z,1.50
2022-11-03T10:47:01.795Z,3.60
2022-11-03T10:52:21.155Z,2.10
2022-11-03T10:57:18.363Z,2.38
2022-11-03T11:02:24.692Z,2.28
2022-11-03T11:07:26.219Z,1.85
2022-11-03T11:12:25.021Z,1.80
2022-11-03T11:17:41.859Z,1.80
2022-11-03T11:22:38.266Z,2.03
2022-11-03T11:27:43.737Z,2.25
2022-11-03T11:32:40.034Z,1.65
2022-11-03T11:37:37.835Z,2.80
2022-11-03T11:42:36.441Z,2.22
2022-11-03T11:47:48.037Z,2.25
2022-11-03T11:52:51.783Z,1.92
2022-11-03T11:57:48.480Z,1.60
2022-11-03T12:02:47.093Z,1.75
2022-11-03T12:07:43.823Z,2.92
2022-11-03T12:12:40.299Z,1.70
2022-11-03T12:17:36.644Z,1.92
2022-11-03T12:22:41.591Z,1.58
2022-11-03T12:27:37.937Z,2.17
2022-11-03T12:32:35.475Z,2.00
2022-11-03T12:37:32.270Z,1.90
2022-11-03T12:42:28.660Z,1.60
2022-11-03T12:47:25.229Z,2.17
2022-11-03T12:52:21.723Z,1.73
2022-11-03T12:57:18.373Z,1.63
2022-11-03T13:02:14.910Z,1.75
2022-11-03T13:07:11.375Z,2.03
2022-11-03T13:12:30.407Z,1.48
2022-11-03T13:17:35.763Z,1.50
2022-11-03T13:22:42.253Z,1.33
2022-11-03T13:27:38.646Z,2.15
2022-11-03T13:32:35.213Z,1.50
2022-11-03T13:37:31.618Z,1.52
2022-11-03T13:42:28.009Z,2.13
2022-11-03T13:47:34.376Z,1.50
2022-11-03T13:52:40.804Z,1.73
2022-11-03T14:08:10.637Z,1.48
2022-11-03T14:13:07.537Z,1.70
2022-11-03T14:18:04.362Z,1.98
2022-11-03T14:23:00.737Z,1.38
2022-11-03T14:27:57.126Z,1.70
2022-11-03T14:32:59.235Z,2.65
2022-11-03T14:37:56.092Z,2.20
2022-11-03T14:42:52.548Z,1.75
2022-11-03T14:47:48.915Z,1.80
2022-11-03T14:52:45.291Z,1.40
2022-11-03T14:57:41.686Z,2.10
2022-11-03T15:02:38.553Z,1.45
2022-11-03T15:07:35.001Z,2.13
2022-11-03T15:12:31.429Z,1.67
2022-11-03T15:17:27.828Z,1.73
2022-11-03T15:27:40.666Z,2.00
2022-11-03T15:32:37.133Z,1.73
2022-11-03T15:37:33.501Z,1.35
2022-11-03T15:42:29.849Z,1.50
2022-11-03T15:47:26.311Z,1.80
2022-11-03T15:52:22.665Z,1.50
2022-11-03T15:57:19.077Z,1.42
2022-11-03T16:02:39.729Z,1.52
2022-11-03T16:07:32.171Z,1.65
2022-11-03T16:12:28.689Z,2.70
2022-11-03T16:17:25.081Z,1.67
2022-11-03T16:22:21.485Z,1.45
2022-11-03T16:27:17.899Z,1.48
2022-11-03T16:32:14.275Z,1.92
2022-11-03T16:37:10.639Z,1.35
2022-11-03T16:42:07.109Z,1.60
2022-11-03T16:47:03.534Z,1.58
2022-11-03T16:51:59.903Z,1.58
2022-11-03T16:56:56.256Z,1.20
2022-11-03T17:01:53.436Z,1.77
2022-11-03T17:06:49.929Z,1.20
2022-11-03T17:11:46.344Z,1.38
2022-11-03T17:16:45.307Z,1.88
2022-11-03T17:21:41.937Z,1.92
2022-11-03T17:26:45.448Z,1.50
2022-11-03T17:31:41.839Z,2.17
2022-11-03T17:36:38.485Z,1.30
2022-11-03T17:41:36.022Z,1.77
2022-11-03T17:46:32.483Z,1.53
2022-11-03T17:51:28.965Z,1.80
2022-11-03T17:56:30.761Z,2.40
2022-11-03T18:01:28.064Z,1.90
2022-11-03T18:06:25.590Z,2.15
2022-11-03T18:11:46.996Z,1.80
2022-11-03T18:16:43.380Z,2.05
2022-11-03T18:21:40.125Z,2.10
2022-11-03T18:26:36.500Z,2.13
2022-11-03T18:31:35.009Z,2.83
2022-11-03T18:36:33.537Z,2.40
2022-11-03T18:41:36.482Z,2.60
2022-11-03T18:46:32.869Z,2.60
2022-11-03T18:51:29.457Z,2.45
2022-11-03T18:56:27.210Z,3.13
2022-11-03T19:01:26.459Z,2.72
2022-11-03T19:06:24.336Z,2.72
2022-11-03T19:11:20.716Z,2.53
2022-11-03T19:16:20.621Z,2.80
2022-11-03T19:21:25.378Z,3.90
2022-11-03T19:26:23.177Z,3.05
2022-11-03T19:31:35.552Z,2.90
2022-11-03T19:36:31.902Z,3.72
2022-11-03T19:41:46.721Z,2.58
2022-11-03T19:46:43.268Z,4.32
2022-11-03T19:51:39.820Z,3.15
2022-11-03T19:56:36.110Z,3.53
2022-11-03T20:01:32.554Z,3.17
2022-11-03T20:06:30.339Z,3.70
2022-11-03T20:11:27.529Z,4.77
2022-11-03T20:16:24.475Z,3.20
2022-11-03T20:21:22.506Z,2.85
2022-11-03T20:26:22.046Z,3.80
2022-11-03T20:31:18.708Z,3.85
2022-11-03T20:36:18.067Z,3.30
2022-11-03T20:41:14.982Z,3.72
2022-11-03T20:46:22.883Z,3.08
2022-11-03T20:51:22.473Z,3.45
2022-11-03T20:56:21.531Z,3.83
2022-11-03T21:01:33.430Z,3.75
2022-11-03T21:06:31.963Z,4.10
2022-11-03T21:16:46.368Z,4.22
2022-11-03T21:21:42.761Z,3.97
2022-11-03T21:26:40.116Z,3.20
2022-11-03T21:31:36.484Z,3.55
2022-11-03T21:36:32.838Z,3.90
2022-11-03T21:41:47.955Z,3.40
2022-11-03T21:46:44.718Z,3.42
2022-11-03T21:51:41.022Z,3.53
2022-11-03T21:56:37.342Z,3.40
2022-11-03T22:01:33.703Z,3.40
2022-11-03T22:06:30.180Z,3.60
2022-11-03T22:11:26.602Z,3.88
2022-11-03T22:16:42.596Z,3.72
2022-11-03T22:21:57.394Z,3.33
2022-11-03T22:26:56.655Z,3.25
2022-11-03T22:31:52.991Z,4.18
2022-11-03T22:36:49.295Z,2.80
2022-11-03T22:42:06.543Z,4.28
2022-11-03T22:47:03.491Z,5.13
2022-11-03T22:51:59.847Z,5.15
2022-11-03T22:56:56.137Z,5.07
2022-11-03T23:01:52.588Z,5.35
2022-11-03T23:06:49.135Z,4.45
2022-11-03T23:11:45.439Z,4.63
2022-11-03T23:16:43.931Z,6.20
2022-11-03T23:21:40.559Z,4.80
2022-11-03T23:26:36.856Z,4.78
2022-11-03T23:31:34.688Z,4.93
2022-11-03T23:36:31.501Z,4.65
2022-11-03T23:41:28.823Z,4.50
2022-11-03T23:46:46.202Z,4.88
2022-11-03T23:51:42.881Z,4.47
2022-11-03T23:57:00.423Z,4.25
